<?xml version="1.0" encoding="UTF-8" standalone="no" ?>
<gpx xmlns="http://www.topografix.com/GPX/1/1" xmlns:xsi="http://www.w3.org/2001/XMLSchema-instance" xsi:schemaLocation="http://www.topografix.com/GPX/1/1 http://www.topografix.com/GPX/1/1/gpx.xsd" version="1.1" creator="VisuGPX - https://www.visugpx.com">
  <metadata>
    <name>14mai.gpx</name>
  </metadata>
  <trk>
    <name><![CDATA[14mai.gpx]]></name>
    <trkseg>
      <trkpt lat="45.75076" lon="4.84509">
        <ele>146.8894</ele>
        <time>2020-05-14T04:54:31Z</time>
      </trkpt>
      <trkpt lat="45.7509" lon="4.84492">
        <ele>147.09196</ele>
        <time>2020-05-14T04:54:36Z</time>
      </trkpt>
      <trkpt lat="45.75107" lon="4.8449">
        <ele>146.81592</ele>
        <time>2020-05-14T04:54:41Z</time>
      </trkpt>
      <trkpt lat="45.75128" lon="4.84498">
        <ele>147.0572</ele>
        <time>2020-05-14T04:54:51Z</time>
      </trkpt>
      <trkpt lat="45.75139" lon="4.84501">
        <ele>147.02246</ele>
        <time>2020-05-14T04:54:56Z</time>
      </trkpt>
      <trkpt lat="45.75153" lon="4.84503">
        <ele>147.01253</ele>
        <time>2020-05-14T04:55:01Z</time>
      </trkpt>
      <trkpt lat="45.75168" lon="4.84506">
        <ele>147.11877</ele>
        <time>2020-05-14T04:55:06Z</time>
      </trkpt>
      <trkpt lat="45.75179" lon="4.8452">
        <ele>147.10785</ele>
        <time>2020-05-14T04:55:11Z</time>
      </trkpt>
      <trkpt lat="45.75187" lon="4.84541">
        <ele>146.97281</ele>
        <time>2020-05-14T04:55:16Z</time>
      </trkpt>
      <trkpt lat="45.75197" lon="4.8456">
        <ele>146.98473</ele>
        <time>2020-05-14T04:55:21Z</time>
      </trkpt>
      <trkpt lat="45.75212" lon="4.84574">
        <ele>146.78712</ele>
        <time>2020-05-14T04:55:30Z</time>
      </trkpt>
      <trkpt lat="45.75224" lon="4.8458">
        <ele>146.75436</ele>
        <time>2020-05-14T04:55:35Z</time>
      </trkpt>
      <trkpt lat="45.75235" lon="4.84585">
        <ele>146.4803</ele>
        <time>2020-05-14T04:55:40Z</time>
      </trkpt>
      <trkpt lat="45.75244" lon="4.84589">
        <ele>146.5796</ele>
        <time>2020-05-14T04:55:45Z</time>
      </trkpt>
      <trkpt lat="45.75253" lon="4.846">
        <ele>146.48825</ele>
        <time>2020-05-14T04:55:51Z</time>
      </trkpt>
      <trkpt lat="45.75262" lon="4.84605">
        <ele>146.80798</ele>
        <time>2020-05-14T04:55:56Z</time>
      </trkpt>
      <trkpt lat="45.75274" lon="4.84614">
        <ele>146.8874</ele>
        <time>2020-05-14T04:56:01Z</time>
      </trkpt>
      <trkpt lat="45.75285" lon="4.84622">
        <ele>147.04132</ele>
        <time>2020-05-14T04:56:06Z</time>
      </trkpt>
      <trkpt lat="45.75296" lon="4.84635">
        <ele>146.97678</ele>
        <time>2020-05-14T04:56:11Z</time>
      </trkpt>
      <trkpt lat="45.75306" lon="4.84645">
        <ele>147.00458</ele>
        <time>2020-05-14T04:56:16Z</time>
      </trkpt>
      <trkpt lat="45.75315" lon="4.84653">
        <ele>147.39084</ele>
        <time>2020-05-14T04:56:21Z</time>
      </trkpt>
      <trkpt lat="45.75335" lon="4.84667">
        <ele>147.41368</ele>
        <time>2020-05-14T04:56:31Z</time>
      </trkpt>
      <trkpt lat="45.75353" lon="4.84681">
        <ele>147.59242</ele>
        <time>2020-05-14T04:56:40Z</time>
      </trkpt>
      <trkpt lat="45.75361" lon="4.84689">
        <ele>147.67583</ele>
        <time>2020-05-14T04:56:45Z</time>
      </trkpt>
      <trkpt lat="45.75369" lon="4.84698">
        <ele>147.53581</ele>
        <time>2020-05-14T04:56:50Z</time>
      </trkpt>
      <trkpt lat="45.75376" lon="4.84698">
        <ele>147.5815</ele>
        <time>2020-05-14T04:56:55Z</time>
      </trkpt>
      <trkpt lat="45.7538" lon="4.84693">
        <ele>147.49411</ele>
        <time>2020-05-14T04:57:01Z</time>
      </trkpt>
      <trkpt lat="45.75383" lon="4.84688">
        <ele>147.53383</ele>
        <time>2020-05-14T04:57:21Z</time>
      </trkpt>
      <trkpt lat="45.75387" lon="4.84685">
        <ele>147.47127</ele>
        <time>2020-05-14T04:57:56Z</time>
      </trkpt>
      <trkpt lat="45.75397" lon="4.84673">
        <ele>146.65506</ele>
        <time>2020-05-14T05:00:06Z</time>
      </trkpt>
      <trkpt lat="45.75403" lon="4.84655">
        <ele>146.5796</ele>
        <time>2020-05-14T05:00:11Z</time>
      </trkpt>
      <trkpt lat="45.75406" lon="4.84633">
        <ele>146.43463</ele>
        <time>2020-05-14T05:00:16Z</time>
      </trkpt>
      <trkpt lat="45.75415" lon="4.8462">
        <ele>146.95096</ele>
        <time>2020-05-14T05:00:21Z</time>
      </trkpt>
      <trkpt lat="45.75426" lon="4.84604">
        <ele>146.81989</ele>
        <time>2020-05-14T05:00:26Z</time>
      </trkpt>
      <trkpt lat="45.75433" lon="4.84588">
        <ele>146.7345</ele>
        <time>2020-05-14T05:00:31Z</time>
      </trkpt>
      <trkpt lat="45.7544" lon="4.84557">
        <ele>146.54286</ele>
        <time>2020-05-14T05:00:40Z</time>
      </trkpt>
      <trkpt lat="45.75439" lon="4.84539">
        <ele>146.67989</ele>
        <time>2020-05-14T05:00:45Z</time>
      </trkpt>
      <trkpt lat="45.75444" lon="4.84521">
        <ele>146.77422</ele>
        <time>2020-05-14T05:00:50Z</time>
      </trkpt>
      <trkpt lat="45.75451" lon="4.84504">
        <ele>146.9321</ele>
        <time>2020-05-14T05:00:55Z</time>
      </trkpt>
      <trkpt lat="45.75461" lon="4.84489">
        <ele>146.99365</ele>
        <time>2020-05-14T05:01:00Z</time>
      </trkpt>
      <trkpt lat="45.75468" lon="4.84471">
        <ele>146.9013</ele>
        <time>2020-05-14T05:01:06Z</time>
      </trkpt>
      <trkpt lat="45.75475" lon="4.84455">
        <ele>146.99565</ele>
        <time>2020-05-14T05:01:11Z</time>
      </trkpt>
      <trkpt lat="45.75481" lon="4.84435">
        <ele>146.95393</ele>
        <time>2020-05-14T05:01:16Z</time>
      </trkpt>
      <trkpt lat="45.75486" lon="4.84417">
        <ele>146.91322</ele>
        <time>2020-05-14T05:01:21Z</time>
      </trkpt>
      <trkpt lat="45.75489" lon="4.84404">
        <ele>146.74939</ele>
        <time>2020-05-14T05:01:26Z</time>
      </trkpt>
      <trkpt lat="45.75494" lon="4.84389">
        <ele>146.63422</ele>
        <time>2020-05-14T05:01:31Z</time>
      </trkpt>
      <trkpt lat="45.75506" lon="4.84358">
        <ele>147.17339</ele>
        <time>2020-05-14T05:01:40Z</time>
      </trkpt>
      <trkpt lat="45.75517" lon="4.84343">
        <ele>147.07707</ele>
        <time>2020-05-14T05:01:45Z</time>
      </trkpt>
      <trkpt lat="45.75517" lon="4.84321">
        <ele>146.9887</ele>
        <time>2020-05-14T05:01:50Z</time>
      </trkpt>
      <trkpt lat="45.75517" lon="4.843">
        <ele>146.94699</ele>
        <time>2020-05-14T05:01:55Z</time>
      </trkpt>
      <trkpt lat="45.7552" lon="4.84287">
        <ele>147.57256</ele>
        <time>2020-05-14T05:02:01Z</time>
      </trkpt>
      <trkpt lat="45.75523" lon="4.84271">
        <ele>147.94095</ele>
        <time>2020-05-14T05:02:06Z</time>
      </trkpt>
      <trkpt lat="45.7553" lon="4.84256">
        <ele>148.55066</ele>
        <time>2020-05-14T05:02:11Z</time>
      </trkpt>
      <trkpt lat="45.75534" lon="4.8424">
        <ele>148.9151</ele>
        <time>2020-05-14T05:02:16Z</time>
      </trkpt>
      <trkpt lat="45.7554" lon="4.84219">
        <ele>149.15443</ele>
        <time>2020-05-14T05:02:21Z</time>
      </trkpt>
      <trkpt lat="45.75545" lon="4.84205">
        <ele>149.35403</ele>
        <time>2020-05-14T05:02:26Z</time>
      </trkpt>
      <trkpt lat="45.75551" lon="4.84191">
        <ele>149.29445</ele>
        <time>2020-05-14T05:02:31Z</time>
      </trkpt>
      <trkpt lat="45.7556" lon="4.84172">
        <ele>149.64003</ele>
        <time>2020-05-14T05:02:36Z</time>
      </trkpt>
      <trkpt lat="45.75568" lon="4.84157">
        <ele>150.03429</ele>
        <time>2020-05-14T05:02:41Z</time>
      </trkpt>
      <trkpt lat="45.75574" lon="4.84146">
        <ele>150.29448</ele>
        <time>2020-05-14T05:02:46Z</time>
      </trkpt>
      <trkpt lat="45.75578" lon="4.84131">
        <ele>150.21106</ele>
        <time>2020-05-14T05:02:51Z</time>
      </trkpt>
      <trkpt lat="45.75585" lon="4.84113">
        <ele>150.46828</ele>
        <time>2020-05-14T05:02:56Z</time>
      </trkpt>
      <trkpt lat="45.7559" lon="4.84091">
        <ele>150.43054</ele>
        <time>2020-05-14T05:03:01Z</time>
      </trkpt>
      <trkpt lat="45.75594" lon="4.84065">
        <ele>150.33719</ele>
        <time>2020-05-14T05:03:06Z</time>
      </trkpt>
      <trkpt lat="45.75599" lon="4.84047">
        <ele>150.78905</ele>
        <time>2020-05-14T05:03:11Z</time>
      </trkpt>
      <trkpt lat="45.75604" lon="4.84028">
        <ele>150.8824</ele>
        <time>2020-05-14T05:03:16Z</time>
      </trkpt>
      <trkpt lat="45.75608" lon="4.8401">
        <ele>150.6808</ele>
        <time>2020-05-14T05:03:21Z</time>
      </trkpt>
      <trkpt lat="45.75619" lon="4.83976">
        <ele>150.66888</ele>
        <time>2020-05-14T05:03:31Z</time>
      </trkpt>
      <trkpt lat="45.75626" lon="4.8396">
        <ele>151.3025</ele>
        <time>2020-05-14T05:03:36Z</time>
      </trkpt>
      <trkpt lat="45.75633" lon="4.83944">
        <ele>151.21808</ele>
        <time>2020-05-14T05:03:41Z</time>
      </trkpt>
      <trkpt lat="45.75639" lon="4.83929">
        <ele>151.1744</ele>
        <time>2020-05-14T05:03:46Z</time>
      </trkpt>
      <trkpt lat="45.75642" lon="4.83912">
        <ele>151.57463</ele>
        <time>2020-05-14T05:03:51Z</time>
      </trkpt>
      <trkpt lat="45.75646" lon="4.83895">
        <ele>151.68884</ele>
        <time>2020-05-14T05:03:56Z</time>
      </trkpt>
      <trkpt lat="45.75655" lon="4.83865">
        <ele>152.26588</ele>
        <time>2020-05-14T05:04:05Z</time>
      </trkpt>
      <trkpt lat="45.7566" lon="4.83849">
        <ele>152.23708</ele>
        <time>2020-05-14T05:04:10Z</time>
      </trkpt>
      <trkpt lat="45.75665" lon="4.83832">
        <ele>152.24998</ele>
        <time>2020-05-14T05:04:15Z</time>
      </trkpt>
      <trkpt lat="45.75672" lon="4.83809">
        <ele>152.15465</ele>
        <time>2020-05-14T05:04:21Z</time>
      </trkpt>
      <trkpt lat="45.75677" lon="4.83793">
        <ele>152.67905</ele>
        <time>2020-05-14T05:04:26Z</time>
      </trkpt>
      <trkpt lat="45.75687" lon="4.83766">
        <ele>151.78418</ele>
        <time>2020-05-14T05:04:35Z</time>
      </trkpt>
      <trkpt lat="45.75694" lon="4.83749">
        <ele>151.87656</ele>
        <time>2020-05-14T05:04:40Z</time>
      </trkpt>
      <trkpt lat="45.75699" lon="4.83732">
        <ele>151.77724</ele>
        <time>2020-05-14T05:04:45Z</time>
      </trkpt>
      <trkpt lat="45.75703" lon="4.83713">
        <ele>151.8994</ele>
        <time>2020-05-14T05:04:50Z</time>
      </trkpt>
      <trkpt lat="45.75706" lon="4.83696">
        <ele>151.15651</ele>
        <time>2020-05-14T05:04:55Z</time>
      </trkpt>
      <trkpt lat="45.75712" lon="4.83673">
        <ele>150.76125</ele>
        <time>2020-05-14T05:05:01Z</time>
      </trkpt>
      <trkpt lat="45.75721" lon="4.83641">
        <ele>150.06607</ele>
        <time>2020-05-14T05:05:10Z</time>
      </trkpt>
      <trkpt lat="45.75729" lon="4.83626">
        <ele>149.93796</ele>
        <time>2020-05-14T05:05:15Z</time>
      </trkpt>
      <trkpt lat="45.75738" lon="4.83609">
        <ele>149.54471</ele>
        <time>2020-05-14T05:05:20Z</time>
      </trkpt>
      <trkpt lat="45.75745" lon="4.83596">
        <ele>149.3729</ele>
        <time>2020-05-14T05:05:25Z</time>
      </trkpt>
      <trkpt lat="45.7575" lon="4.83579">
        <ele>149.41362</ele>
        <time>2020-05-14T05:05:30Z</time>
      </trkpt>
      <trkpt lat="45.75755" lon="4.83558">
        <ele>148.66287</ele>
        <time>2020-05-14T05:05:36Z</time>
      </trkpt>
      <trkpt lat="45.75762" lon="4.83539">
        <ele>148.2597</ele>
        <time>2020-05-14T05:05:41Z</time>
      </trkpt>
      <trkpt lat="45.7577" lon="4.83519">
        <ele>148.31134</ele>
        <time>2020-05-14T05:05:46Z</time>
      </trkpt>
      <trkpt lat="45.75777" lon="4.83501">
        <ele>147.97075</ele>
        <time>2020-05-14T05:05:51Z</time>
      </trkpt>
      <trkpt lat="45.75782" lon="4.83484">
        <ele>147.74136</ele>
        <time>2020-05-14T05:05:56Z</time>
      </trkpt>
      <trkpt lat="45.7579" lon="4.83467">
        <ele>147.61824</ele>
        <time>2020-05-14T05:06:01Z</time>
      </trkpt>
      <trkpt lat="45.75797" lon="4.83448">
        <ele>147.31935</ele>
        <time>2020-05-14T05:06:06Z</time>
      </trkpt>
      <trkpt lat="45.75799" lon="4.83415">
        <ele>147.2141</ele>
        <time>2020-05-14T05:06:15Z</time>
      </trkpt>
      <trkpt lat="45.75797" lon="4.83395">
        <ele>147.42064</ele>
        <time>2020-05-14T05:06:20Z</time>
      </trkpt>
      <trkpt lat="45.75798" lon="4.83378">
        <ele>147.36601</ele>
        <time>2020-05-14T05:06:25Z</time>
      </trkpt>
      <trkpt lat="45.75801" lon="4.83361">
        <ele>147.27765</ele>
        <time>2020-05-14T05:06:30Z</time>
      </trkpt>
      <trkpt lat="45.75805" lon="4.83341">
        <ele>147.42758</ele>
        <time>2020-05-14T05:06:36Z</time>
      </trkpt>
      <trkpt lat="45.75808" lon="4.83323">
        <ele>147.48021</ele>
        <time>2020-05-14T05:06:41Z</time>
      </trkpt>
      <trkpt lat="45.75812" lon="4.83305">
        <ele>147.91911</ele>
        <time>2020-05-14T05:06:46Z</time>
      </trkpt>
      <trkpt lat="45.75815" lon="4.83286">
        <ele>147.54376</ele>
        <time>2020-05-14T05:06:51Z</time>
      </trkpt>
      <trkpt lat="45.75819" lon="4.83268">
        <ele>147.77115</ele>
        <time>2020-05-14T05:06:56Z</time>
      </trkpt>
      <trkpt lat="45.75825" lon="4.83249">
        <ele>147.3829</ele>
        <time>2020-05-14T05:07:01Z</time>
      </trkpt>
      <trkpt lat="45.75829" lon="4.83231">
        <ele>147.71356</ele>
        <time>2020-05-14T05:07:06Z</time>
      </trkpt>
      <trkpt lat="45.75838" lon="4.83202">
        <ele>148.05118</ele>
        <time>2020-05-14T05:07:15Z</time>
      </trkpt>
      <trkpt lat="45.75843" lon="4.83184">
        <ele>148.24878</ele>
        <time>2020-05-14T05:07:20Z</time>
      </trkpt>
      <trkpt lat="45.75848" lon="4.83167">
        <ele>148.40965</ele>
        <time>2020-05-14T05:07:25Z</time>
      </trkpt>
      <trkpt lat="45.75853" lon="4.83151">
        <ele>148.54272</ele>
        <time>2020-05-14T05:07:30Z</time>
      </trkpt>
      <trkpt lat="45.75858" lon="4.83134">
        <ele>149.04718</ele>
        <time>2020-05-14T05:07:35Z</time>
      </trkpt>
      <trkpt lat="45.75863" lon="4.83117">
        <ele>149.14351</ele>
        <time>2020-05-14T05:07:40Z</time>
      </trkpt>
      <trkpt lat="45.75867" lon="4.831">
        <ele>149.50995</ele>
        <time>2020-05-14T05:07:45Z</time>
      </trkpt>
      <trkpt lat="45.75872" lon="4.83081">
        <ele>148.93893</ele>
        <time>2020-05-14T05:07:50Z</time>
      </trkpt>
      <trkpt lat="45.75878" lon="4.83064">
        <ele>148.96376</ele>
        <time>2020-05-14T05:07:55Z</time>
      </trkpt>
      <trkpt lat="45.75889" lon="4.83046">
        <ele>149.0154</ele>
        <time>2020-05-14T05:08:01Z</time>
      </trkpt>
      <trkpt lat="45.75898" lon="4.8303">
        <ele>149.28055</ele>
        <time>2020-05-14T05:08:06Z</time>
      </trkpt>
      <trkpt lat="45.75909" lon="4.82999">
        <ele>149.48413</ele>
        <time>2020-05-14T05:08:16Z</time>
      </trkpt>
      <trkpt lat="45.7592" lon="4.8297">
        <ele>150.42955</ele>
        <time>2020-05-14T05:08:25Z</time>
      </trkpt>
      <trkpt lat="45.75922" lon="4.82961">
        <ele>150.24979</ele>
        <time>2020-05-14T05:08:30Z</time>
      </trkpt>
      <trkpt lat="45.75922" lon="4.82947">
        <ele>151.20816</ele>
        <time>2020-05-14T05:08:41Z</time>
      </trkpt>
      <trkpt lat="45.75921" lon="4.82932">
        <ele>152.1467</ele>
        <time>2020-05-14T05:08:46Z</time>
      </trkpt>
      <trkpt lat="45.75927" lon="4.82913">
        <ele>152.28177</ele>
        <time>2020-05-14T05:08:51Z</time>
      </trkpt>
      <trkpt lat="45.75933" lon="4.82894">
        <ele>152.84293</ele>
        <time>2020-05-14T05:08:56Z</time>
      </trkpt>
      <trkpt lat="45.75942" lon="4.82861">
        <ele>153.56998</ele>
        <time>2020-05-14T05:09:06Z</time>
      </trkpt>
      <trkpt lat="45.75954" lon="4.82806">
        <ele>152.3632</ele>
        <time>2020-05-14T05:09:21Z</time>
      </trkpt>
      <trkpt lat="45.75958" lon="4.82788">
        <ele>151.87257</ele>
        <time>2020-05-14T05:09:26Z</time>
      </trkpt>
      <trkpt lat="45.75962" lon="4.82772">
        <ele>151.43459</ele>
        <time>2020-05-14T05:09:31Z</time>
      </trkpt>
      <trkpt lat="45.75967" lon="4.82754">
        <ele>150.9271</ele>
        <time>2020-05-14T05:09:36Z</time>
      </trkpt>
      <trkpt lat="45.7598" lon="4.82725">
        <ele>151.26477</ele>
        <time>2020-05-14T05:09:45Z</time>
      </trkpt>
      <trkpt lat="45.75983" lon="4.82707">
        <ele>150.78806</ele>
        <time>2020-05-14T05:09:50Z</time>
      </trkpt>
      <trkpt lat="45.75987" lon="4.82691">
        <ele>151.0989</ele>
        <time>2020-05-14T05:09:55Z</time>
      </trkpt>
      <trkpt lat="45.75995" lon="4.82671">
        <ele>150.75429</ele>
        <time>2020-05-14T05:10:01Z</time>
      </trkpt>
      <trkpt lat="45.75994" lon="4.82662">
        <ele>150.88141</ele>
        <time>2020-05-14T05:10:06Z</time>
      </trkpt>
      <trkpt lat="45.75985" lon="4.82656">
        <ele>151.32436</ele>
        <time>2020-05-14T05:10:11Z</time>
      </trkpt>
      <trkpt lat="45.75978" lon="4.82653">
        <ele>151.7514</ele>
        <time>2020-05-14T05:10:16Z</time>
      </trkpt>
      <trkpt lat="45.75974" lon="4.82641">
        <ele>152.50424</ele>
        <time>2020-05-14T05:10:21Z</time>
      </trkpt>
      <trkpt lat="45.75968" lon="4.826">
        <ele>153.77458</ele>
        <time>2020-05-14T05:10:30Z</time>
      </trkpt>
      <trkpt lat="45.75966" lon="4.82585">
        <ele>154.44008</ele>
        <time>2020-05-14T05:10:35Z</time>
      </trkpt>
      <trkpt lat="45.7596" lon="4.82567">
        <ele>155.22182</ele>
        <time>2020-05-14T05:10:41Z</time>
      </trkpt>
      <trkpt lat="45.75954" lon="4.82559">
        <ele>155.96683</ele>
        <time>2020-05-14T05:10:46Z</time>
      </trkpt>
      <trkpt lat="45.75946" lon="4.8255">
        <ele>156.99</ele>
        <time>2020-05-14T05:10:51Z</time>
      </trkpt>
      <trkpt lat="45.7594" lon="4.82539">
        <ele>158.83385</ele>
        <time>2020-05-14T05:10:56Z</time>
      </trkpt>
      <trkpt lat="45.75934" lon="4.82529">
        <ele>159.78365</ele>
        <time>2020-05-14T05:11:01Z</time>
      </trkpt>
      <trkpt lat="45.75925" lon="4.82523">
        <ele>161.32864</ele>
        <time>2020-05-14T05:11:06Z</time>
      </trkpt>
      <trkpt lat="45.75912" lon="4.82515">
        <ele>164.09201</ele>
        <time>2020-05-14T05:11:15Z</time>
      </trkpt>
      <trkpt lat="45.75905" lon="4.8251">
        <ele>165.66911</ele>
        <time>2020-05-14T05:11:20Z</time>
      </trkpt>
      <trkpt lat="45.75898" lon="4.82506">
        <ele>166.83588</ele>
        <time>2020-05-14T05:11:25Z</time>
      </trkpt>
      <trkpt lat="45.75894" lon="4.82503">
        <ele>168.46286</ele>
        <time>2020-05-14T05:11:30Z</time>
      </trkpt>
      <trkpt lat="45.75889" lon="4.825">
        <ele>169.86136</ele>
        <time>2020-05-14T05:11:35Z</time>
      </trkpt>
      <trkpt lat="45.75883" lon="4.82493">
        <ele>171.30965</ele>
        <time>2020-05-14T05:11:41Z</time>
      </trkpt>
      <trkpt lat="45.75878" lon="4.82478">
        <ele>172.66856</ele>
        <time>2020-05-14T05:11:46Z</time>
      </trkpt>
      <trkpt lat="45.75872" lon="4.82468">
        <ele>174.28406</ele>
        <time>2020-05-14T05:11:51Z</time>
      </trkpt>
      <trkpt lat="45.75867" lon="4.8246">
        <ele>175.6004</ele>
        <time>2020-05-14T05:11:56Z</time>
      </trkpt>
      <trkpt lat="45.75861" lon="4.82452">
        <ele>176.84027</ele>
        <time>2020-05-14T05:12:01Z</time>
      </trkpt>
      <trkpt lat="45.75853" lon="4.82445">
        <ele>178.43121</ele>
        <time>2020-05-14T05:12:06Z</time>
      </trkpt>
      <trkpt lat="45.75848" lon="4.82425">
        <ele>181.37378</ele>
        <time>2020-05-14T05:12:16Z</time>
      </trkpt>
      <trkpt lat="45.75845" lon="4.82405">
        <ele>183.8413</ele>
        <time>2020-05-14T05:12:25Z</time>
      </trkpt>
      <trkpt lat="45.75842" lon="4.82396">
        <ele>185.33029</ele>
        <time>2020-05-14T05:12:30Z</time>
      </trkpt>
      <trkpt lat="45.75838" lon="4.82386">
        <ele>186.66322</ele>
        <time>2020-05-14T05:12:35Z</time>
      </trkpt>
      <trkpt lat="45.75834" lon="4.82376">
        <ele>187.96837</ele>
        <time>2020-05-14T05:12:41Z</time>
      </trkpt>
      <trkpt lat="45.75828" lon="4.8237">
        <ele>189.23878</ele>
        <time>2020-05-14T05:12:46Z</time>
      </trkpt>
      <trkpt lat="45.7582" lon="4.82364">
        <ele>190.41872</ele>
        <time>2020-05-14T05:12:51Z</time>
      </trkpt>
      <trkpt lat="45.75813" lon="4.8236">
        <ele>191.60072</ele>
        <time>2020-05-14T05:12:56Z</time>
      </trkpt>
      <trkpt lat="45.75804" lon="4.82361">
        <ele>192.59572</ele>
        <time>2020-05-14T05:13:01Z</time>
      </trkpt>
      <trkpt lat="45.75795" lon="4.82363">
        <ele>193.74101</ele>
        <time>2020-05-14T05:13:06Z</time>
      </trkpt>
      <trkpt lat="45.75777" lon="4.82359">
        <ele>195.87056</ele>
        <time>2020-05-14T05:13:15Z</time>
      </trkpt>
      <trkpt lat="45.75771" lon="4.82347">
        <ele>196.9394</ele>
        <time>2020-05-14T05:13:20Z</time>
      </trkpt>
      <trkpt lat="45.75769" lon="4.82334">
        <ele>198.38748</ele>
        <time>2020-05-14T05:13:25Z</time>
      </trkpt>
      <trkpt lat="45.7577" lon="4.82323">
        <ele>199.36388</ele>
        <time>2020-05-14T05:13:30Z</time>
      </trkpt>
      <trkpt lat="45.75771" lon="4.82309">
        <ele>200.55034</ele>
        <time>2020-05-14T05:13:35Z</time>
      </trkpt>
      <trkpt lat="45.75772" lon="4.82291">
        <ele>201.7299</ele>
        <time>2020-05-14T05:13:41Z</time>
      </trkpt>
      <trkpt lat="45.75772" lon="4.82279">
        <ele>202.73332</ele>
        <time>2020-05-14T05:13:46Z</time>
      </trkpt>
      <trkpt lat="45.75773" lon="4.82268">
        <ele>203.89009</ele>
        <time>2020-05-14T05:13:51Z</time>
      </trkpt>
      <trkpt lat="45.75774" lon="4.82255">
        <ele>205.07281</ele>
        <time>2020-05-14T05:13:56Z</time>
      </trkpt>
      <trkpt lat="45.75774" lon="4.82243">
        <ele>206.01566</ele>
        <time>2020-05-14T05:14:01Z</time>
      </trkpt>
      <trkpt lat="45.75773" lon="4.82229">
        <ele>206.94858</ele>
        <time>2020-05-14T05:14:06Z</time>
      </trkpt>
      <trkpt lat="45.75771" lon="4.82219">
        <ele>208.02293</ele>
        <time>2020-05-14T05:14:11Z</time>
      </trkpt>
      <trkpt lat="45.75768" lon="4.82209">
        <ele>209.24371</ele>
        <time>2020-05-14T05:14:16Z</time>
      </trkpt>
      <trkpt lat="45.75763" lon="4.82199">
        <ele>210.30823</ele>
        <time>2020-05-14T05:14:21Z</time>
      </trkpt>
      <trkpt lat="45.75755" lon="4.82193">
        <ele>211.45445</ele>
        <time>2020-05-14T05:14:26Z</time>
      </trkpt>
      <trkpt lat="45.75751" lon="4.82186">
        <ele>212.39458</ele>
        <time>2020-05-14T05:14:31Z</time>
      </trkpt>
      <trkpt lat="45.75758" lon="4.82197">
        <ele>214.06778</ele>
        <time>2020-05-14T05:14:41Z</time>
      </trkpt>
      <trkpt lat="45.75768" lon="4.82203">
        <ele>203.69397</ele>
        <time>2020-05-14T05:14:46Z</time>
      </trkpt>
      <trkpt lat="45.75779" lon="4.82204">
        <ele>217.98537</ele>
        <time>2020-05-14T05:14:51Z</time>
      </trkpt>
      <trkpt lat="45.75798" lon="4.82207">
        <ele>217.28806</ele>
        <time>2020-05-14T05:15:01Z</time>
      </trkpt>
      <trkpt lat="45.75791" lon="4.82206">
        <ele>218.7614</ele>
        <time>2020-05-14T05:15:10Z</time>
      </trkpt>
      <trkpt lat="45.75781" lon="4.82198">
        <ele>219.15887</ele>
        <time>2020-05-14T05:15:15Z</time>
      </trkpt>
      <trkpt lat="45.7577" lon="4.82186">
        <ele>218.83012</ele>
        <time>2020-05-14T05:15:20Z</time>
      </trkpt>
      <trkpt lat="45.75758" lon="4.82176">
        <ele>219.42288</ele>
        <time>2020-05-14T05:15:26Z</time>
      </trkpt>
      <trkpt lat="45.7575" lon="4.82168">
        <ele>219.39697</ele>
        <time>2020-05-14T05:15:31Z</time>
      </trkpt>
      <trkpt lat="45.7574" lon="4.8216">
        <ele>220.60544</ele>
        <time>2020-05-14T05:15:36Z</time>
      </trkpt>
      <trkpt lat="45.75735" lon="4.82151">
        <ele>220.03557</ele>
        <time>2020-05-14T05:15:41Z</time>
      </trkpt>
      <trkpt lat="45.75727" lon="4.82141">
        <ele>220.70308</ele>
        <time>2020-05-14T05:15:46Z</time>
      </trkpt>
      <trkpt lat="45.75718" lon="4.82135">
        <ele>221.73526</ele>
        <time>2020-05-14T05:15:51Z</time>
      </trkpt>
      <trkpt lat="45.7571" lon="4.82126">
        <ele>222.64694</ele>
        <time>2020-05-14T05:15:56Z</time>
      </trkpt>
      <trkpt lat="45.75702" lon="4.82116">
        <ele>223.0445</ele>
        <time>2020-05-14T05:16:01Z</time>
      </trkpt>
      <trkpt lat="45.75693" lon="4.82107">
        <ele>224.0479</ele>
        <time>2020-05-14T05:16:06Z</time>
      </trkpt>
      <trkpt lat="45.75687" lon="4.82094">
        <ele>225.11212</ele>
        <time>2020-05-14T05:16:11Z</time>
      </trkpt>
      <trkpt lat="45.75681" lon="4.82082">
        <ele>225.92728</ele>
        <time>2020-05-14T05:16:16Z</time>
      </trkpt>
      <trkpt lat="45.75674" lon="4.82072">
        <ele>226.83115</ele>
        <time>2020-05-14T05:16:21Z</time>
      </trkpt>
      <trkpt lat="45.75664" lon="4.82054">
        <ele>227.82874</ele>
        <time>2020-05-14T05:16:30Z</time>
      </trkpt>
      <trkpt lat="45.75657" lon="4.82039">
        <ele>228.65096</ele>
        <time>2020-05-14T05:16:35Z</time>
      </trkpt>
      <trkpt lat="45.75647" lon="4.82024">
        <ele>229.53201</ele>
        <time>2020-05-14T05:16:41Z</time>
      </trkpt>
      <trkpt lat="45.75637" lon="4.82001">
        <ele>231.85245</ele>
        <time>2020-05-14T05:16:51Z</time>
      </trkpt>
      <trkpt lat="45.75631" lon="4.81977">
        <ele>232.96889</ele>
        <time>2020-05-14T05:17:01Z</time>
      </trkpt>
      <trkpt lat="45.75629" lon="4.81961">
        <ele>233.89398</ele>
        <time>2020-05-14T05:17:06Z</time>
      </trkpt>
      <trkpt lat="45.75623" lon="4.81948">
        <ele>234.48515</ele>
        <time>2020-05-14T05:17:11Z</time>
      </trkpt>
      <trkpt lat="45.75614" lon="4.81938">
        <ele>235.24182</ele>
        <time>2020-05-14T05:17:16Z</time>
      </trkpt>
      <trkpt lat="45.75608" lon="4.81925">
        <ele>235.77719</ele>
        <time>2020-05-14T05:17:21Z</time>
      </trkpt>
      <trkpt lat="45.75603" lon="4.81913">
        <ele>236.29164</ele>
        <time>2020-05-14T05:17:26Z</time>
      </trkpt>
      <trkpt lat="45.75601" lon="4.81897">
        <ele>237.35945</ele>
        <time>2020-05-14T05:17:31Z</time>
      </trkpt>
      <trkpt lat="45.75601" lon="4.81879">
        <ele>237.36642</ele>
        <time>2020-05-14T05:17:36Z</time>
      </trkpt>
      <trkpt lat="45.756" lon="4.81863">
        <ele>238.75836</ele>
        <time>2020-05-14T05:17:41Z</time>
      </trkpt>
      <trkpt lat="45.75601" lon="4.81848">
        <ele>239.1602</ele>
        <time>2020-05-14T05:17:46Z</time>
      </trkpt>
      <trkpt lat="45.75604" lon="4.81832">
        <ele>239.81233</ele>
        <time>2020-05-14T05:17:51Z</time>
      </trkpt>
      <trkpt lat="45.75609" lon="4.81804">
        <ele>240.71577</ele>
        <time>2020-05-14T05:18:01Z</time>
      </trkpt>
      <trkpt lat="45.75612" lon="4.81786">
        <ele>241.05183</ele>
        <time>2020-05-14T05:18:06Z</time>
      </trkpt>
      <trkpt lat="45.75614" lon="4.81771">
        <ele>241.35898</ele>
        <time>2020-05-14T05:18:11Z</time>
      </trkpt>
      <trkpt lat="45.75618" lon="4.81756">
        <ele>242.23856</ele>
        <time>2020-05-14T05:18:16Z</time>
      </trkpt>
      <trkpt lat="45.75624" lon="4.8174">
        <ele>242.57265</ele>
        <time>2020-05-14T05:18:21Z</time>
      </trkpt>
      <trkpt lat="45.75629" lon="4.81728">
        <ele>242.86186</ele>
        <time>2020-05-14T05:18:26Z</time>
      </trkpt>
      <trkpt lat="45.75644" lon="4.81703">
        <ele>244.05666</ele>
        <time>2020-05-14T05:18:35Z</time>
      </trkpt>
      <trkpt lat="45.75649" lon="4.81693">
        <ele>244.5304</ele>
        <time>2020-05-14T05:18:40Z</time>
      </trkpt>
      <trkpt lat="45.75655" lon="4.8168">
        <ele>245.1398</ele>
        <time>2020-05-14T05:18:45Z</time>
      </trkpt>
      <trkpt lat="45.7566" lon="4.81667">
        <ele>245.99759</ele>
        <time>2020-05-14T05:18:50Z</time>
      </trkpt>
      <trkpt lat="45.75666" lon="4.81655">
        <ele>246.51128</ele>
        <time>2020-05-14T05:18:55Z</time>
      </trkpt>
      <trkpt lat="45.75672" lon="4.8164">
        <ele>247.06587</ele>
        <time>2020-05-14T05:19:01Z</time>
      </trkpt>
      <trkpt lat="45.75679" lon="4.81626">
        <ele>247.83795</ele>
        <time>2020-05-14T05:19:06Z</time>
      </trkpt>
      <trkpt lat="45.75686" lon="4.81614">
        <ele>248.22798</ele>
        <time>2020-05-14T05:19:11Z</time>
      </trkpt>
      <trkpt lat="45.75691" lon="4.81602">
        <ele>248.52725</ele>
        <time>2020-05-14T05:19:16Z</time>
      </trkpt>
      <trkpt lat="45.75697" lon="4.8159">
        <ele>248.90233</ele>
        <time>2020-05-14T05:19:21Z</time>
      </trkpt>
      <trkpt lat="45.75706" lon="4.81576">
        <ele>248.82552</ele>
        <time>2020-05-14T05:19:26Z</time>
      </trkpt>
      <trkpt lat="45.75728" lon="4.81577">
        <ele>249.3652</ele>
        <time>2020-05-14T05:19:35Z</time>
      </trkpt>
      <trkpt lat="45.75738" lon="4.81567">
        <ele>249.76126</ele>
        <time>2020-05-14T05:19:40Z</time>
      </trkpt>
      <trkpt lat="45.75747" lon="4.81559">
        <ele>250.99034</ele>
        <time>2020-05-14T05:19:45Z</time>
      </trkpt>
      <trkpt lat="45.75756" lon="4.81552">
        <ele>254.13123</ele>
        <time>2020-05-14T05:19:50Z</time>
      </trkpt>
      <trkpt lat="45.75763" lon="4.81545">
        <ele>251.8294</ele>
        <time>2020-05-14T05:19:55Z</time>
      </trkpt>
      <trkpt lat="45.75772" lon="4.8153">
        <ele>251.19786</ele>
        <time>2020-05-14T05:20:01Z</time>
      </trkpt>
      <trkpt lat="45.7578" lon="4.81516">
        <ele>251.6997</ele>
        <time>2020-05-14T05:20:06Z</time>
      </trkpt>
      <trkpt lat="45.75789" lon="4.81504">
        <ele>252.26141</ele>
        <time>2020-05-14T05:20:11Z</time>
      </trkpt>
      <trkpt lat="45.75797" lon="4.81493">
        <ele>254.5543</ele>
        <time>2020-05-14T05:20:16Z</time>
      </trkpt>
      <trkpt lat="45.75804" lon="4.81482">
        <ele>252.72935</ele>
        <time>2020-05-14T05:20:21Z</time>
      </trkpt>
      <trkpt lat="45.75811" lon="4.81471">
        <ele>253.45473</ele>
        <time>2020-05-14T05:20:26Z</time>
      </trkpt>
      <trkpt lat="45.75818" lon="4.81458">
        <ele>253.79297</ele>
        <time>2020-05-14T05:20:31Z</time>
      </trkpt>
      <trkpt lat="45.75825" lon="4.81447">
        <ele>254.61018</ele>
        <time>2020-05-14T05:20:36Z</time>
      </trkpt>
      <trkpt lat="45.75832" lon="4.81435">
        <ele>255.12308</ele>
        <time>2020-05-14T05:20:41Z</time>
      </trkpt>
      <trkpt lat="45.75839" lon="4.81426">
        <ele>255.73378</ele>
        <time>2020-05-14T05:20:46Z</time>
      </trkpt>
      <trkpt lat="45.75849" lon="4.8142">
        <ele>256.25967</ele>
        <time>2020-05-14T05:20:51Z</time>
      </trkpt>
      <trkpt lat="45.75858" lon="4.81408">
        <ele>256.8694</ele>
        <time>2020-05-14T05:20:56Z</time>
      </trkpt>
      <trkpt lat="45.75868" lon="4.81395">
        <ele>257.53104</ele>
        <time>2020-05-14T05:21:01Z</time>
      </trkpt>
      <trkpt lat="45.75876" lon="4.81388">
        <ele>258.40027</ele>
        <time>2020-05-14T05:21:06Z</time>
      </trkpt>
      <trkpt lat="45.75886" lon="4.81395">
        <ele>259.5101</ele>
        <time>2020-05-14T05:21:11Z</time>
      </trkpt>
      <trkpt lat="45.75891" lon="4.81411">
        <ele>260.34647</ele>
        <time>2020-05-14T05:21:16Z</time>
      </trkpt>
      <trkpt lat="45.75885" lon="4.81424">
        <ele>261.32962</ele>
        <time>2020-05-14T05:21:21Z</time>
      </trkpt>
      <trkpt lat="45.75877" lon="4.81436">
        <ele>261.52826</ele>
        <time>2020-05-14T05:21:26Z</time>
      </trkpt>
      <trkpt lat="45.75872" lon="4.8145">
        <ele>262.71707</ele>
        <time>2020-05-14T05:21:31Z</time>
      </trkpt>
      <trkpt lat="45.75866" lon="4.81463">
        <ele>263.09338</ele>
        <time>2020-05-14T05:21:36Z</time>
      </trkpt>
      <trkpt lat="45.75861" lon="4.81475">
        <ele>264.30725</ele>
        <time>2020-05-14T05:21:41Z</time>
      </trkpt>
      <trkpt lat="45.75858" lon="4.8149">
        <ele>264.72855</ele>
        <time>2020-05-14T05:21:46Z</time>
      </trkpt>
      <trkpt lat="45.75861" lon="4.81498">
        <ele>265.3345</ele>
        <time>2020-05-14T05:21:51Z</time>
      </trkpt>
      <trkpt lat="45.75869" lon="4.81498">
        <ele>265.9485</ele>
        <time>2020-05-14T05:21:56Z</time>
      </trkpt>
      <trkpt lat="45.75879" lon="4.81489">
        <ele>267.07565</ele>
        <time>2020-05-14T05:22:01Z</time>
      </trkpt>
      <trkpt lat="45.7589" lon="4.81465">
        <ele>268.3187</ele>
        <time>2020-05-14T05:22:11Z</time>
      </trkpt>
      <trkpt lat="45.75895" lon="4.81446">
        <ele>269.05856</ele>
        <time>2020-05-14T05:22:20Z</time>
      </trkpt>
      <trkpt lat="45.75903" lon="4.81435">
        <ele>269.52386</ele>
        <time>2020-05-14T05:22:25Z</time>
      </trkpt>
      <trkpt lat="45.75913" lon="4.81423">
        <ele>270.6372</ele>
        <time>2020-05-14T05:22:31Z</time>
      </trkpt>
      <trkpt lat="45.75922" lon="4.81414">
        <ele>270.85092</ele>
        <time>2020-05-14T05:22:36Z</time>
      </trkpt>
      <trkpt lat="45.75931" lon="4.81409">
        <ele>271.30725</ele>
        <time>2020-05-14T05:22:41Z</time>
      </trkpt>
      <trkpt lat="45.7594" lon="4.81405">
        <ele>272.01028</ele>
        <time>2020-05-14T05:22:46Z</time>
      </trkpt>
      <trkpt lat="45.7595" lon="4.81395">
        <ele>272.67737</ele>
        <time>2020-05-14T05:22:51Z</time>
      </trkpt>
      <trkpt lat="45.75953" lon="4.81382">
        <ele>273.18768</ele>
        <time>2020-05-14T05:22:56Z</time>
      </trkpt>
      <trkpt lat="45.75955" lon="4.8137">
        <ele>273.68503</ele>
        <time>2020-05-14T05:23:01Z</time>
      </trkpt>
      <trkpt lat="45.75964" lon="4.81359">
        <ele>274.23233</ele>
        <time>2020-05-14T05:23:06Z</time>
      </trkpt>
      <trkpt lat="45.7597" lon="4.81348">
        <ele>274.50598</ele>
        <time>2020-05-14T05:23:11Z</time>
      </trkpt>
      <trkpt lat="45.75975" lon="4.81332">
        <ele>274.489</ele>
        <time>2020-05-14T05:23:16Z</time>
      </trkpt>
      <trkpt lat="45.75983" lon="4.81307">
        <ele>275.1472</ele>
        <time>2020-05-14T05:23:25Z</time>
      </trkpt>
      <trkpt lat="45.75996" lon="4.81302">
        <ele>275.32697</ele>
        <time>2020-05-14T05:23:30Z</time>
      </trkpt>
      <trkpt lat="45.76009" lon="4.8129">
        <ele>276.18692</ele>
        <time>2020-05-14T05:23:36Z</time>
      </trkpt>
      <trkpt lat="45.7603" lon="4.81274">
        <ele>269.0905</ele>
        <time>2020-05-14T05:23:46Z</time>
      </trkpt>
      <trkpt lat="45.76041" lon="4.81273">
        <ele>276.39966</ele>
        <time>2020-05-14T05:23:50Z</time>
      </trkpt>
      <trkpt lat="45.76055" lon="4.81267">
        <ele>274.1764</ele>
        <time>2020-05-14T05:23:56Z</time>
      </trkpt>
      <trkpt lat="45.76077" lon="4.81254">
        <ele>248.69185</ele>
        <time>2020-05-14T05:24:06Z</time>
      </trkpt>
      <trkpt lat="45.76089" lon="4.81247">
        <ele>242.2944</ele>
        <time>2020-05-14T05:24:11Z</time>
      </trkpt>
      <trkpt lat="45.76115" lon="4.81237">
        <ele>243.78339</ele>
        <time>2020-05-14T05:24:21Z</time>
      </trkpt>
      <trkpt lat="45.76137" lon="4.81238">
        <ele>270.63522</ele>
        <time>2020-05-14T05:24:30Z</time>
      </trkpt>
      <trkpt lat="45.76147" lon="4.81244">
        <ele>270.2508</ele>
        <time>2020-05-14T05:24:36Z</time>
      </trkpt>
      <trkpt lat="45.76159" lon="4.81263">
        <ele>270.4505</ele>
        <time>2020-05-14T05:24:56Z</time>
      </trkpt>
      <trkpt lat="45.76166" lon="4.81278">
        <ele>270.66916</ele>
        <time>2020-05-14T05:25:01Z</time>
      </trkpt>
      <trkpt lat="45.76177" lon="4.81295">
        <ele>271.36917</ele>
        <time>2020-05-14T05:25:10Z</time>
      </trkpt>
      <trkpt lat="45.76187" lon="4.81292">
        <ele>271.25732</ele>
        <time>2020-05-14T05:25:15Z</time>
      </trkpt>
      <trkpt lat="45.76202" lon="4.81288">
        <ele>271.96036</ele>
        <time>2020-05-14T05:25:20Z</time>
      </trkpt>
      <trkpt lat="45.76216" lon="4.81285">
        <ele>271.5559</ele>
        <time>2020-05-14T05:25:25Z</time>
      </trkpt>
      <trkpt lat="45.76229" lon="4.81282">
        <ele>271.6388</ele>
        <time>2020-05-14T05:25:30Z</time>
      </trkpt>
      <trkpt lat="45.76242" lon="4.81281">
        <ele>271.79257</ele>
        <time>2020-05-14T05:25:36Z</time>
      </trkpt>
      <trkpt lat="45.76254" lon="4.81284">
        <ele>271.40213</ele>
        <time>2020-05-14T05:25:41Z</time>
      </trkpt>
      <trkpt lat="45.76266" lon="4.813">
        <ele>271.38916</ele>
        <time>2020-05-14T05:25:46Z</time>
      </trkpt>
      <trkpt lat="45.76271" lon="4.81318">
        <ele>271.2274</ele>
        <time>2020-05-14T05:25:51Z</time>
      </trkpt>
      <trkpt lat="45.76276" lon="4.81335">
        <ele>271.0077</ele>
        <time>2020-05-14T05:25:56Z</time>
      </trkpt>
      <trkpt lat="45.76285" lon="4.81369">
        <ele>270.91183</ele>
        <time>2020-05-14T05:26:06Z</time>
      </trkpt>
      <trkpt lat="45.76288" lon="4.81386">
        <ele>271.4391</ele>
        <time>2020-05-14T05:26:11Z</time>
      </trkpt>
      <trkpt lat="45.76294" lon="4.81427">
        <ele>270.28473</ele>
        <time>2020-05-14T05:26:21Z</time>
      </trkpt>
      <trkpt lat="45.76298" lon="4.81459">
        <ele>269.53882</ele>
        <time>2020-05-14T05:26:30Z</time>
      </trkpt>
      <trkpt lat="45.76301" lon="4.81483">
        <ele>268.84787</ele>
        <time>2020-05-14T05:26:36Z</time>
      </trkpt>
      <trkpt lat="45.76304" lon="4.81502">
        <ele>268.23383</ele>
        <time>2020-05-14T05:26:41Z</time>
      </trkpt>
      <trkpt lat="45.76305" lon="4.81518">
        <ele>268.08405</ele>
        <time>2020-05-14T05:26:46Z</time>
      </trkpt>
      <trkpt lat="45.76306" lon="4.81534">
        <ele>268.48343</ele>
        <time>2020-05-14T05:26:51Z</time>
      </trkpt>
      <trkpt lat="45.76307" lon="4.81552">
        <ele>268.3786</ele>
        <time>2020-05-14T05:26:56Z</time>
      </trkpt>
      <trkpt lat="45.76314" lon="4.81593">
        <ele>268.4325</ele>
        <time>2020-05-14T05:27:06Z</time>
      </trkpt>
      <trkpt lat="45.76314" lon="4.81613">
        <ele>268.93774</ele>
        <time>2020-05-14T05:27:11Z</time>
      </trkpt>
      <trkpt lat="45.76319" lon="4.81648">
        <ele>268.21783</ele>
        <time>2020-05-14T05:27:20Z</time>
      </trkpt>
      <trkpt lat="45.76321" lon="4.81665">
        <ele>266.84003</ele>
        <time>2020-05-14T05:27:25Z</time>
      </trkpt>
      <trkpt lat="45.76324" lon="4.81681">
        <ele>266.25897</ele>
        <time>2020-05-14T05:27:30Z</time>
      </trkpt>
      <trkpt lat="45.76329" lon="4.81701">
        <ele>266.02237</ele>
        <time>2020-05-14T05:27:36Z</time>
      </trkpt>
      <trkpt lat="45.7633" lon="4.81722">
        <ele>265.29956</ele>
        <time>2020-05-14T05:27:41Z</time>
      </trkpt>
      <trkpt lat="45.7633" lon="4.81744">
        <ele>265.44034</ele>
        <time>2020-05-14T05:27:46Z</time>
      </trkpt>
      <trkpt lat="45.76329" lon="4.81763">
        <ele>264.44702</ele>
        <time>2020-05-14T05:27:51Z</time>
      </trkpt>
      <trkpt lat="45.76328" lon="4.81781">
        <ele>264.0567</ele>
        <time>2020-05-14T05:27:56Z</time>
      </trkpt>
      <trkpt lat="45.76329" lon="4.81798">
        <ele>263.6085</ele>
        <time>2020-05-14T05:28:01Z</time>
      </trkpt>
      <trkpt lat="45.76331" lon="4.81818">
        <ele>263.05746</ele>
        <time>2020-05-14T05:28:06Z</time>
      </trkpt>
      <trkpt lat="45.7633" lon="4.81852">
        <ele>262.40863</ele>
        <time>2020-05-14T05:28:15Z</time>
      </trkpt>
      <trkpt lat="45.7633" lon="4.81871">
        <ele>262.00238</ele>
        <time>2020-05-14T05:28:20Z</time>
      </trkpt>
      <trkpt lat="45.76328" lon="4.8189">
        <ele>262.63623</ele>
        <time>2020-05-14T05:28:25Z</time>
      </trkpt>
      <trkpt lat="45.76324" lon="4.81909">
        <ele>262.33575</ele>
        <time>2020-05-14T05:28:30Z</time>
      </trkpt>
      <trkpt lat="45.7632" lon="4.81928">
        <ele>265.6889</ele>
        <time>2020-05-14T05:28:35Z</time>
      </trkpt>
      <trkpt lat="45.76313" lon="4.8195">
        <ele>263.90594</ele>
        <time>2020-05-14T05:28:41Z</time>
      </trkpt>
      <trkpt lat="45.76307" lon="4.81968">
        <ele>239.02458</ele>
        <time>2020-05-14T05:28:46Z</time>
      </trkpt>
      <trkpt lat="45.76302" lon="4.81986">
        <ele>264.83636</ele>
        <time>2020-05-14T05:28:51Z</time>
      </trkpt>
      <trkpt lat="45.76297" lon="4.82003">
        <ele>261.42642</ele>
        <time>2020-05-14T05:28:56Z</time>
      </trkpt>
      <trkpt lat="45.76301" lon="4.82035">
        <ele>270.8449</ele>
        <time>2020-05-14T05:29:06Z</time>
      </trkpt>
      <trkpt lat="45.76304" lon="4.82052">
        <ele>267.4031</ele>
        <time>2020-05-14T05:29:11Z</time>
      </trkpt>
      <trkpt lat="45.76308" lon="4.82069">
        <ele>265.77875</ele>
        <time>2020-05-14T05:29:16Z</time>
      </trkpt>
      <trkpt lat="45.76315" lon="4.82084">
        <ele>271.1375</ele>
        <time>2020-05-14T05:29:21Z</time>
      </trkpt>
      <trkpt lat="45.76326" lon="4.82116">
        <ele>269.23828</ele>
        <time>2020-05-14T05:29:31Z</time>
      </trkpt>
      <trkpt lat="45.76331" lon="4.82132">
        <ele>269.72354</ele>
        <time>2020-05-14T05:29:36Z</time>
      </trkpt>
      <trkpt lat="45.76336" lon="4.82147">
        <ele>270.97372</ele>
        <time>2020-05-14T05:29:41Z</time>
      </trkpt>
      <trkpt lat="45.76357" lon="4.82169">
        <ele>270.60925</ele>
        <time>2020-05-14T05:29:51Z</time>
      </trkpt>
      <trkpt lat="45.76362" lon="4.82205">
        <ele>272.19403</ele>
        <time>2020-05-14T05:30:01Z</time>
      </trkpt>
      <trkpt lat="45.7636" lon="4.82219">
        <ele>272.1501</ele>
        <time>2020-05-14T05:30:06Z</time>
      </trkpt>
      <trkpt lat="45.76341" lon="4.82221">
        <ele>272.76926</ele>
        <time>2020-05-14T05:30:16Z</time>
      </trkpt>
      <trkpt lat="45.76318" lon="4.82219">
        <ele>273.98166</ele>
        <time>2020-05-14T05:30:25Z</time>
      </trkpt>
      <trkpt lat="45.76306" lon="4.8222">
        <ele>274.03857</ele>
        <time>2020-05-14T05:30:30Z</time>
      </trkpt>
      <trkpt lat="45.76298" lon="4.82228">
        <ele>276.08203</ele>
        <time>2020-05-14T05:30:35Z</time>
      </trkpt>
      <trkpt lat="45.76286" lon="4.82242">
        <ele>274.43008</ele>
        <time>2020-05-14T05:30:41Z</time>
      </trkpt>
      <trkpt lat="45.76276" lon="4.82256">
        <ele>274.50397</ele>
        <time>2020-05-14T05:30:46Z</time>
      </trkpt>
      <trkpt lat="45.76268" lon="4.82262">
        <ele>274.79462</ele>
        <time>2020-05-14T05:30:51Z</time>
      </trkpt>
      <trkpt lat="45.76266" lon="4.82275">
        <ele>275.07727</ele>
        <time>2020-05-14T05:30:56Z</time>
      </trkpt>
      <trkpt lat="45.76265" lon="4.82295">
        <ele>274.76065</ele>
        <time>2020-05-14T05:31:05Z</time>
      </trkpt>
      <trkpt lat="45.76265" lon="4.82302">
        <ele>273.0888</ele>
        <time>2020-05-14T05:31:11Z</time>
      </trkpt>
      <trkpt lat="45.76263" lon="4.82296">
        <ele>274.7167</ele>
        <time>2020-05-14T05:32:21Z</time>
      </trkpt>
      <trkpt lat="45.76262" lon="4.8228">
        <ele>274.2493</ele>
        <time>2020-05-14T05:32:26Z</time>
      </trkpt>
      <trkpt lat="45.76261" lon="4.82262">
        <ele>274.11148</ele>
        <time>2020-05-14T05:32:31Z</time>
      </trkpt>
      <trkpt lat="45.7626" lon="4.82241">
        <ele>274.42908</ele>
        <time>2020-05-14T05:32:36Z</time>
      </trkpt>
      <trkpt lat="45.76257" lon="4.82225">
        <ele>274.35217</ele>
        <time>2020-05-14T05:32:41Z</time>
      </trkpt>
      <trkpt lat="45.76251" lon="4.82201">
        <ele>276.20688</ele>
        <time>2020-05-14T05:32:50Z</time>
      </trkpt>
      <trkpt lat="45.76241" lon="4.82196">
        <ele>276.01413</ele>
        <time>2020-05-14T05:32:55Z</time>
      </trkpt>
      <trkpt lat="45.76229" lon="4.82197">
        <ele>275.83633</ele>
        <time>2020-05-14T05:33:00Z</time>
      </trkpt>
      <trkpt lat="45.76218" lon="4.822">
        <ele>276.129</ele>
        <time>2020-05-14T05:33:05Z</time>
      </trkpt>
      <trkpt lat="45.76209" lon="4.82205">
        <ele>275.73148</ele>
        <time>2020-05-14T05:33:10Z</time>
      </trkpt>
      <trkpt lat="45.76196" lon="4.82207">
        <ele>275.304</ele>
        <time>2020-05-14T05:33:16Z</time>
      </trkpt>
      <trkpt lat="45.76171" lon="4.82205">
        <ele>274.58087</ele>
        <time>2020-05-14T05:33:26Z</time>
      </trkpt>
      <trkpt lat="45.76147" lon="4.82218">
        <ele>270.64322</ele>
        <time>2020-05-14T05:33:36Z</time>
      </trkpt>
      <trkpt lat="45.76123" lon="4.82228">
        <ele>267.1735</ele>
        <time>2020-05-14T05:33:46Z</time>
      </trkpt>
      <trkpt lat="45.76109" lon="4.82223">
        <ele>265.11487</ele>
        <time>2020-05-14T05:33:51Z</time>
      </trkpt>
      <trkpt lat="45.76096" lon="4.82218">
        <ele>262.91672</ele>
        <time>2020-05-14T05:33:56Z</time>
      </trkpt>
      <trkpt lat="45.76083" lon="4.82215">
        <ele>261.26074</ele>
        <time>2020-05-14T05:34:01Z</time>
      </trkpt>
      <trkpt lat="45.76068" lon="4.82209">
        <ele>259.4123</ele>
        <time>2020-05-14T05:34:06Z</time>
      </trkpt>
      <trkpt lat="45.76054" lon="4.82205">
        <ele>262.43857</ele>
        <time>2020-05-14T05:34:11Z</time>
      </trkpt>
      <trkpt lat="45.7604" lon="4.82222">
        <ele>252.91693</ele>
        <time>2020-05-14T05:34:21Z</time>
      </trkpt>
      <trkpt lat="45.76037" lon="4.82258">
        <ele>251.26372</ele>
        <time>2020-05-14T05:34:30Z</time>
      </trkpt>
      <trkpt lat="45.76028" lon="4.82265">
        <ele>249.84306</ele>
        <time>2020-05-14T05:34:35Z</time>
      </trkpt>
      <trkpt lat="45.76016" lon="4.82262">
        <ele>248.3816</ele>
        <time>2020-05-14T05:34:40Z</time>
      </trkpt>
      <trkpt lat="45.76003" lon="4.82261">
        <ele>247.44492</ele>
        <time>2020-05-14T05:34:45Z</time>
      </trkpt>
      <trkpt lat="45.75993" lon="4.82257">
        <ele>250.89557</ele>
        <time>2020-05-14T05:34:50Z</time>
      </trkpt>
      <trkpt lat="45.75982" lon="4.82239">
        <ele>246.0335</ele>
        <time>2020-05-14T05:34:55Z</time>
      </trkpt>
      <trkpt lat="45.75978" lon="4.82218">
        <ele>246.19109</ele>
        <time>2020-05-14T05:35:00Z</time>
      </trkpt>
      <trkpt lat="45.75972" lon="4.82196">
        <ele>244.23618</ele>
        <time>2020-05-14T05:35:05Z</time>
      </trkpt>
      <trkpt lat="45.75969" lon="4.82177">
        <ele>246.68784</ele>
        <time>2020-05-14T05:35:10Z</time>
      </trkpt>
      <trkpt lat="45.75962" lon="4.8216">
        <ele>239.6468</ele>
        <time>2020-05-14T05:35:16Z</time>
      </trkpt>
      <trkpt lat="45.75948" lon="4.8215">
        <ele>238.87103</ele>
        <time>2020-05-14T05:35:21Z</time>
      </trkpt>
      <trkpt lat="45.75936" lon="4.82148">
        <ele>237.96965</ele>
        <time>2020-05-14T05:35:26Z</time>
      </trkpt>
      <trkpt lat="45.75933" lon="4.82184">
        <ele>238.35652</ele>
        <time>2020-05-14T05:35:35Z</time>
      </trkpt>
      <trkpt lat="45.7593" lon="4.82206">
        <ele>233.88002</ele>
        <time>2020-05-14T05:35:40Z</time>
      </trkpt>
      <trkpt lat="45.75924" lon="4.82226">
        <ele>229.36757</ele>
        <time>2020-05-14T05:35:45Z</time>
      </trkpt>
      <trkpt lat="45.75918" lon="4.82249">
        <ele>232.43857</ele>
        <time>2020-05-14T05:35:51Z</time>
      </trkpt>
      <trkpt lat="45.75917" lon="4.82271">
        <ele>235.32657</ele>
        <time>2020-05-14T05:35:56Z</time>
      </trkpt>
      <trkpt lat="45.75916" lon="4.82291">
        <ele>231.3082</ele>
        <time>2020-05-14T05:36:01Z</time>
      </trkpt>
      <trkpt lat="45.75911" lon="4.82309">
        <ele>230.85567</ele>
        <time>2020-05-14T05:36:06Z</time>
      </trkpt>
      <trkpt lat="45.75911" lon="4.82327">
        <ele>230.74104</ele>
        <time>2020-05-14T05:36:11Z</time>
      </trkpt>
      <trkpt lat="45.75908" lon="4.82328">
        <ele>228.95793</ele>
        <time>2020-05-14T05:36:16Z</time>
      </trkpt>
      <trkpt lat="45.75895" lon="4.82325">
        <ele>227.4869</ele>
        <time>2020-05-14T05:36:21Z</time>
      </trkpt>
      <trkpt lat="45.75872" lon="4.82299">
        <ele>225.70505</ele>
        <time>2020-05-14T05:36:30Z</time>
      </trkpt>
      <trkpt lat="45.75863" lon="4.82278">
        <ele>224.57602</ele>
        <time>2020-05-14T05:36:35Z</time>
      </trkpt>
      <trkpt lat="45.75856" lon="4.82258">
        <ele>222.72665</ele>
        <time>2020-05-14T05:36:40Z</time>
      </trkpt>
      <trkpt lat="45.75848" lon="4.82234">
        <ele>223.73302</ele>
        <time>2020-05-14T05:36:46Z</time>
      </trkpt>
      <trkpt lat="45.75841" lon="4.82215">
        <ele>219.11206</ele>
        <time>2020-05-14T05:36:51Z</time>
      </trkpt>
      <trkpt lat="45.75833" lon="4.82199">
        <ele>221.4005</ele>
        <time>2020-05-14T05:36:56Z</time>
      </trkpt>
      <trkpt lat="45.75827" lon="4.822">
        <ele>219.09811</ele>
        <time>2020-05-14T05:37:01Z</time>
      </trkpt>
      <trkpt lat="45.75819" lon="4.82201">
        <ele>218.27924</ele>
        <time>2020-05-14T05:37:06Z</time>
      </trkpt>
      <trkpt lat="45.75805" lon="4.82196">
        <ele>217.77219</ele>
        <time>2020-05-14T05:37:11Z</time>
      </trkpt>
      <trkpt lat="45.75787" lon="4.82197">
        <ele>217.0679</ele>
        <time>2020-05-14T05:37:16Z</time>
      </trkpt>
      <trkpt lat="45.75771" lon="4.82192">
        <ele>216.88263</ele>
        <time>2020-05-14T05:37:21Z</time>
      </trkpt>
      <trkpt lat="45.75763" lon="4.82183">
        <ele>213.52696</ele>
        <time>2020-05-14T05:37:26Z</time>
      </trkpt>
      <trkpt lat="45.75768" lon="4.82193">
        <ele>214.72614</ele>
        <time>2020-05-14T05:37:31Z</time>
      </trkpt>
      <trkpt lat="45.75776" lon="4.82207">
        <ele>209.75056</ele>
        <time>2020-05-14T05:37:36Z</time>
      </trkpt>
      <trkpt lat="45.75781" lon="4.82226">
        <ele>208.06476</ele>
        <time>2020-05-14T05:37:41Z</time>
      </trkpt>
      <trkpt lat="45.75785" lon="4.8225">
        <ele>206.12418</ele>
        <time>2020-05-14T05:37:46Z</time>
      </trkpt>
      <trkpt lat="45.7579" lon="4.82291">
        <ele>202.53123</ele>
        <time>2020-05-14T05:37:55Z</time>
      </trkpt>
      <trkpt lat="45.7579" lon="4.82318">
        <ele>200.50455</ele>
        <time>2020-05-14T05:38:01Z</time>
      </trkpt>
      <trkpt lat="45.75787" lon="4.82333">
        <ele>193.2594</ele>
        <time>2020-05-14T05:38:06Z</time>
      </trkpt>
      <trkpt lat="45.75786" lon="4.82347">
        <ele>194.30324</ele>
        <time>2020-05-14T05:38:11Z</time>
      </trkpt>
      <trkpt lat="45.75795" lon="4.82354">
        <ele>197.05783</ele>
        <time>2020-05-14T05:38:16Z</time>
      </trkpt>
      <trkpt lat="45.75822" lon="4.82366">
        <ele>189.77402</ele>
        <time>2020-05-14T05:38:25Z</time>
      </trkpt>
      <trkpt lat="45.75834" lon="4.82376">
        <ele>178.64401</ele>
        <time>2020-05-14T05:38:30Z</time>
      </trkpt>
      <trkpt lat="45.75841" lon="4.82396">
        <ele>175.4135</ele>
        <time>2020-05-14T05:38:35Z</time>
      </trkpt>
      <trkpt lat="45.75848" lon="4.82416">
        <ele>174.0892</ele>
        <time>2020-05-14T05:38:40Z</time>
      </trkpt>
      <trkpt lat="45.75856" lon="4.82432">
        <ele>172.51448</ele>
        <time>2020-05-14T05:38:45Z</time>
      </trkpt>
      <trkpt lat="45.75865" lon="4.82447">
        <ele>170.7033</ele>
        <time>2020-05-14T05:38:50Z</time>
      </trkpt>
      <trkpt lat="45.75877" lon="4.82457">
        <ele>170.62476</ele>
        <time>2020-05-14T05:38:55Z</time>
      </trkpt>
      <trkpt lat="45.7589" lon="4.82471">
        <ele>171.44981</ele>
        <time>2020-05-14T05:39:01Z</time>
      </trkpt>
      <trkpt lat="45.75901" lon="4.8248">
        <ele>170.60587</ele>
        <time>2020-05-14T05:39:06Z</time>
      </trkpt>
      <trkpt lat="45.75911" lon="4.82488">
        <ele>167.72836</ele>
        <time>2020-05-14T05:39:11Z</time>
      </trkpt>
      <trkpt lat="45.75922" lon="4.82496">
        <ele>165.07584</ele>
        <time>2020-05-14T05:39:16Z</time>
      </trkpt>
      <trkpt lat="45.75943" lon="4.82524">
        <ele>161.45383</ele>
        <time>2020-05-14T05:39:25Z</time>
      </trkpt>
      <trkpt lat="45.75954" lon="4.82533">
        <ele>159.79457</ele>
        <time>2020-05-14T05:39:30Z</time>
      </trkpt>
      <trkpt lat="45.75964" lon="4.82537">
        <ele>159.49055</ele>
        <time>2020-05-14T05:39:35Z</time>
      </trkpt>
      <trkpt lat="45.75973" lon="4.82544">
        <ele>157.39731</ele>
        <time>2020-05-14T05:39:41Z</time>
      </trkpt>
      <trkpt lat="45.75977" lon="4.82558">
        <ele>152.78136</ele>
        <time>2020-05-14T05:39:46Z</time>
      </trkpt>
      <trkpt lat="45.75977" lon="4.8258">
        <ele>148.56854</ele>
        <time>2020-05-14T05:39:51Z</time>
      </trkpt>
      <trkpt lat="45.75978" lon="4.82603">
        <ele>147.82875</ele>
        <time>2020-05-14T05:39:56Z</time>
      </trkpt>
      <trkpt lat="45.75979" lon="4.82623">
        <ele>149.07697</ele>
        <time>2020-05-14T05:40:01Z</time>
      </trkpt>
      <trkpt lat="45.75987" lon="4.82634">
        <ele>149.04022</ele>
        <time>2020-05-14T05:40:06Z</time>
      </trkpt>
      <trkpt lat="45.75996" lon="4.82641">
        <ele>148.11473</ele>
        <time>2020-05-14T05:40:11Z</time>
      </trkpt>
      <trkpt lat="45.75999" lon="4.82674">
        <ele>145.72073</ele>
        <time>2020-05-14T05:40:21Z</time>
      </trkpt>
      <trkpt lat="45.75989" lon="4.82704">
        <ele>148.94193</ele>
        <time>2020-05-14T05:40:30Z</time>
      </trkpt>
      <trkpt lat="45.75984" lon="4.82721">
        <ele>149.73338</ele>
        <time>2020-05-14T05:40:35Z</time>
      </trkpt>
      <trkpt lat="45.75979" lon="4.82742">
        <ele>150.05217</ele>
        <time>2020-05-14T05:40:40Z</time>
      </trkpt>
      <trkpt lat="45.75967" lon="4.82767">
        <ele>149.84361</ele>
        <time>2020-05-14T05:40:46Z</time>
      </trkpt>
      <trkpt lat="45.75962" lon="4.82784">
        <ele>149.43448</ele>
        <time>2020-05-14T05:40:51Z</time>
      </trkpt>
      <trkpt lat="45.7596" lon="4.82804">
        <ele>149.31432</ele>
        <time>2020-05-14T05:40:56Z</time>
      </trkpt>
      <trkpt lat="45.75954" lon="4.82834">
        <ele>147.81287</ele>
        <time>2020-05-14T05:41:05Z</time>
      </trkpt>
      <trkpt lat="45.75949" lon="4.8285">
        <ele>147.17339</ele>
        <time>2020-05-14T05:41:10Z</time>
      </trkpt>
      <trkpt lat="45.75942" lon="4.82872">
        <ele>146.70769</ele>
        <time>2020-05-14T05:41:16Z</time>
      </trkpt>
      <trkpt lat="45.75936" lon="4.8289">
        <ele>146.63719</ele>
        <time>2020-05-14T05:41:21Z</time>
      </trkpt>
      <trkpt lat="45.7593" lon="4.82908">
        <ele>147.5259</ele>
        <time>2020-05-14T05:41:26Z</time>
      </trkpt>
      <trkpt lat="45.75922" lon="4.82936">
        <ele>147.2558</ele>
        <time>2020-05-14T05:41:35Z</time>
      </trkpt>
      <trkpt lat="45.7592" lon="4.82956">
        <ele>146.80301</ele>
        <time>2020-05-14T05:41:40Z</time>
      </trkpt>
      <trkpt lat="45.75913" lon="4.82977">
        <ele>147.367</ele>
        <time>2020-05-14T05:41:46Z</time>
      </trkpt>
      <trkpt lat="45.75906" lon="4.82995">
        <ele>146.99664</ele>
        <time>2020-05-14T05:41:51Z</time>
      </trkpt>
      <trkpt lat="45.75901" lon="4.83012">
        <ele>146.20229</ele>
        <time>2020-05-14T05:41:56Z</time>
      </trkpt>
      <trkpt lat="45.75893" lon="4.83042">
        <ele>143.39053</ele>
        <time>2020-05-14T05:42:05Z</time>
      </trkpt>
      <trkpt lat="45.75889" lon="4.83064">
        <ele>142.45435</ele>
        <time>2020-05-14T05:42:11Z</time>
      </trkpt>
      <trkpt lat="45.75879" lon="4.83099">
        <ele>140.77866</ele>
        <time>2020-05-14T05:42:21Z</time>
      </trkpt>
      <trkpt lat="45.75876" lon="4.83115">
        <ele>136.71404</ele>
        <time>2020-05-14T05:42:26Z</time>
      </trkpt>
      <trkpt lat="45.75871" lon="4.83134">
        <ele>131.72636</ele>
        <time>2020-05-14T05:42:31Z</time>
      </trkpt>
      <trkpt lat="45.7586" lon="4.83169">
        <ele>123.06266</ele>
        <time>2020-05-14T05:42:41Z</time>
      </trkpt>
      <trkpt lat="45.75848" lon="4.83203">
        <ele>122.52111</ele>
        <time>2020-05-14T05:42:50Z</time>
      </trkpt>
      <trkpt lat="45.75844" lon="4.83222">
        <ele>123.41875</ele>
        <time>2020-05-14T05:42:55Z</time>
      </trkpt>
      <trkpt lat="45.75839" lon="4.8324">
        <ele>124.28964</ele>
        <time>2020-05-14T05:43:00Z</time>
      </trkpt>
      <trkpt lat="45.75834" lon="4.83261">
        <ele>124.28567</ele>
        <time>2020-05-14T05:43:06Z</time>
      </trkpt>
      <trkpt lat="45.75833" lon="4.83281">
        <ele>124.12101</ele>
        <time>2020-05-14T05:43:11Z</time>
      </trkpt>
      <trkpt lat="45.75826" lon="4.83318">
        <ele>124.957214</ele>
        <time>2020-05-14T05:43:21Z</time>
      </trkpt>
      <trkpt lat="45.75816" lon="4.8335">
        <ele>124.739975</ele>
        <time>2020-05-14T05:43:30Z</time>
      </trkpt>
      <trkpt lat="45.75811" lon="4.83367">
        <ele>124.26385</ele>
        <time>2020-05-14T05:43:35Z</time>
      </trkpt>
      <trkpt lat="45.75806" lon="4.83384">
        <ele>123.87204</ele>
        <time>2020-05-14T05:43:40Z</time>
      </trkpt>
      <trkpt lat="45.75799" lon="4.83404">
        <ele>123.373116</ele>
        <time>2020-05-14T05:43:46Z</time>
      </trkpt>
      <trkpt lat="45.75794" lon="4.83419">
        <ele>122.56971</ele>
        <time>2020-05-14T05:43:51Z</time>
      </trkpt>
      <trkpt lat="45.75791" lon="4.83437">
        <ele>121.86154</ele>
        <time>2020-05-14T05:43:56Z</time>
      </trkpt>
      <trkpt lat="45.75787" lon="4.83455">
        <ele>122.01825</ele>
        <time>2020-05-14T05:44:01Z</time>
      </trkpt>
      <trkpt lat="45.75786" lon="4.83474">
        <ele>121.023476</ele>
        <time>2020-05-14T05:44:06Z</time>
      </trkpt>
      <trkpt lat="45.75782" lon="4.8349">
        <ele>121.31109</ele>
        <time>2020-05-14T05:44:11Z</time>
      </trkpt>
      <trkpt lat="45.75774" lon="4.83522">
        <ele>121.8298</ele>
        <time>2020-05-14T05:44:20Z</time>
      </trkpt>
      <trkpt lat="45.75771" lon="4.8354">
        <ele>121.46978</ele>
        <time>2020-05-14T05:44:25Z</time>
      </trkpt>
      <trkpt lat="45.75767" lon="4.83557">
        <ele>121.60962</ele>
        <time>2020-05-14T05:44:30Z</time>
      </trkpt>
      <trkpt lat="45.75762" lon="4.83571">
        <ele>121.02546</ele>
        <time>2020-05-14T05:44:35Z</time>
      </trkpt>
      <trkpt lat="45.75758" lon="4.83594">
        <ele>117.42065</ele>
        <time>2020-05-14T05:44:41Z</time>
      </trkpt>
      <trkpt lat="45.75744" lon="4.83628">
        <ele>112.26288</ele>
        <time>2020-05-14T05:44:51Z</time>
      </trkpt>
      <trkpt lat="45.75724" lon="4.83656">
        <ele>114.89217</ele>
        <time>2020-05-14T05:45:01Z</time>
      </trkpt>
      <trkpt lat="45.75712" lon="4.83682">
        <ele>115.2164</ele>
        <time>2020-05-14T05:45:11Z</time>
      </trkpt>
      <trkpt lat="45.75708" lon="4.83696">
        <ele>115.66258</ele>
        <time>2020-05-14T05:45:16Z</time>
      </trkpt>
      <trkpt lat="45.75705" lon="4.83715">
        <ele>116.1653</ele>
        <time>2020-05-14T05:45:21Z</time>
      </trkpt>
      <trkpt lat="45.75701" lon="4.83732">
        <ele>116.34477</ele>
        <time>2020-05-14T05:45:26Z</time>
      </trkpt>
      <trkpt lat="45.75692" lon="4.83761">
        <ele>117.23224</ele>
        <time>2020-05-14T05:45:35Z</time>
      </trkpt>
      <trkpt lat="45.75687" lon="4.83778">
        <ele>117.96108</ele>
        <time>2020-05-14T05:45:40Z</time>
      </trkpt>
      <trkpt lat="45.75681" lon="4.83795">
        <ele>118.463844</ele>
        <time>2020-05-14T05:45:45Z</time>
      </trkpt>
      <trkpt lat="45.75675" lon="4.83816">
        <ele>118.554085</ele>
        <time>2020-05-14T05:45:51Z</time>
      </trkpt>
      <trkpt lat="45.7567" lon="4.83833">
        <ele>118.38749</ele>
        <time>2020-05-14T05:45:56Z</time>
      </trkpt>
      <trkpt lat="45.75661" lon="4.83866">
        <ele>118.96662</ele>
        <time>2020-05-14T05:46:05Z</time>
      </trkpt>
      <trkpt lat="45.75656" lon="4.83885">
        <ele>119.502144</ele>
        <time>2020-05-14T05:46:10Z</time>
      </trkpt>
      <trkpt lat="45.75649" lon="4.83904">
        <ele>119.79965</ele>
        <time>2020-05-14T05:46:15Z</time>
      </trkpt>
      <trkpt lat="45.75642" lon="4.83924">
        <ele>120.36296</ele>
        <time>2020-05-14T05:46:21Z</time>
      </trkpt>
      <trkpt lat="45.75631" lon="4.83959">
        <ele>120.59305</ele>
        <time>2020-05-14T05:46:31Z</time>
      </trkpt>
      <trkpt lat="45.7562" lon="4.83989">
        <ele>121.14844</ele>
        <time>2020-05-14T05:46:40Z</time>
      </trkpt>
      <trkpt lat="45.75614" lon="4.84005">
        <ele>121.228775</ele>
        <time>2020-05-14T05:46:45Z</time>
      </trkpt>
      <trkpt lat="45.75608" lon="4.84029">
        <ele>121.40432</ele>
        <time>2020-05-14T05:46:51Z</time>
      </trkpt>
      <trkpt lat="45.75602" lon="4.84045">
        <ele>121.017525</ele>
        <time>2020-05-14T05:46:56Z</time>
      </trkpt>
      <trkpt lat="45.75597" lon="4.84063">
        <ele>120.56825</ele>
        <time>2020-05-14T05:47:01Z</time>
      </trkpt>
      <trkpt lat="45.75592" lon="4.84081">
        <ele>119.49818</ele>
        <time>2020-05-14T05:47:06Z</time>
      </trkpt>
      <trkpt lat="45.75587" lon="4.84095">
        <ele>117.95414</ele>
        <time>2020-05-14T05:47:11Z</time>
      </trkpt>
      <trkpt lat="45.75584" lon="4.84111">
        <ele>117.367096</ele>
        <time>2020-05-14T05:47:16Z</time>
      </trkpt>
      <trkpt lat="45.75578" lon="4.84142">
        <ele>117.31157</ele>
        <time>2020-05-14T05:47:25Z</time>
      </trkpt>
      <trkpt lat="45.7557" lon="4.84159">
        <ele>117.06367</ele>
        <time>2020-05-14T05:47:30Z</time>
      </trkpt>
      <trkpt lat="45.75564" lon="4.84175">
        <ele>116.878235</ele>
        <time>2020-05-14T05:47:35Z</time>
      </trkpt>
      <trkpt lat="45.75561" lon="4.84191">
        <ele>117.01904</ele>
        <time>2020-05-14T05:47:40Z</time>
      </trkpt>
      <trkpt lat="45.75554" lon="4.84213">
        <ele>116.914925</ele>
        <time>2020-05-14T05:47:45Z</time>
      </trkpt>
      <trkpt lat="45.75546" lon="4.84235">
        <ele>116.26346</ele>
        <time>2020-05-14T05:47:51Z</time>
      </trkpt>
      <trkpt lat="45.75538" lon="4.84253">
        <ele>115.068665</ele>
        <time>2020-05-14T05:47:56Z</time>
      </trkpt>
      <trkpt lat="45.75525" lon="4.8429">
        <ele>109.73401</ele>
        <time>2020-05-14T05:48:06Z</time>
      </trkpt>
      <trkpt lat="45.7552" lon="4.84305">
        <ele>104.783195</ele>
        <time>2020-05-14T05:48:11Z</time>
      </trkpt>
      <trkpt lat="45.75516" lon="4.84317">
        <ele>100.2328</ele>
        <time>2020-05-14T05:48:16Z</time>
      </trkpt>
      <trkpt lat="45.75508" lon="4.84349">
        <ele>94.30246</ele>
        <time>2020-05-14T05:48:25Z</time>
      </trkpt>
      <trkpt lat="45.75505" lon="4.84361">
        <ele>94.25293</ele>
        <time>2020-05-14T05:48:30Z</time>
      </trkpt>
      <trkpt lat="45.75501" lon="4.8437">
        <ele>95.54962</ele>
        <time>2020-05-14T05:48:35Z</time>
      </trkpt>
      <trkpt lat="45.75495" lon="4.84385">
        <ele>96.65617</ele>
        <time>2020-05-14T05:48:40Z</time>
      </trkpt>
      <trkpt lat="45.75489" lon="4.84407">
        <ele>96.66013</ele>
        <time>2020-05-14T05:48:45Z</time>
      </trkpt>
      <trkpt lat="45.75487" lon="4.8443">
        <ele>96.364914</ele>
        <time>2020-05-14T05:48:51Z</time>
      </trkpt>
      <trkpt lat="45.75479" lon="4.8447">
        <ele>96.139046</ele>
        <time>2020-05-14T05:49:01Z</time>
      </trkpt>
      <trkpt lat="45.75476" lon="4.84488">
        <ele>96.12914</ele>
        <time>2020-05-14T05:49:06Z</time>
      </trkpt>
      <trkpt lat="45.75471" lon="4.84507">
        <ele>96.58286</ele>
        <time>2020-05-14T05:49:11Z</time>
      </trkpt>
      <trkpt lat="45.75466" lon="4.84524">
        <ele>97.35065</ele>
        <time>2020-05-14T05:49:16Z</time>
      </trkpt>
      <trkpt lat="45.7546" lon="4.84546">
        <ele>97.47944</ele>
        <time>2020-05-14T05:49:25Z</time>
      </trkpt>
      <trkpt lat="45.75454" lon="4.84565">
        <ele>97.17529</ele>
        <time>2020-05-14T05:49:30Z</time>
      </trkpt>
      <trkpt lat="45.7545" lon="4.84581">
        <ele>97.3239</ele>
        <time>2020-05-14T05:49:35Z</time>
      </trkpt>
      <trkpt lat="45.75441" lon="4.84603">
        <ele>97.386314</ele>
        <time>2020-05-14T05:49:40Z</time>
      </trkpt>
      <trkpt lat="45.75429" lon="4.84622">
        <ele>97.578514</ele>
        <time>2020-05-14T05:49:45Z</time>
      </trkpt>
      <trkpt lat="45.75425" lon="4.84636">
        <ele>97.58643</ele>
        <time>2020-05-14T05:49:50Z</time>
      </trkpt>
      <trkpt lat="45.75418" lon="4.84658">
        <ele>97.06532</ele>
        <time>2020-05-14T05:49:56Z</time>
      </trkpt>
      <trkpt lat="45.75411" lon="4.84676">
        <ele>96.36987</ele>
        <time>2020-05-14T05:50:01Z</time>
      </trkpt>
      <trkpt lat="45.75404" lon="4.8469">
        <ele>94.66699</ele>
        <time>2020-05-14T05:50:06Z</time>
      </trkpt>
      <trkpt lat="45.75379" lon="4.847">
        <ele>82.11097</ele>
        <time>2020-05-14T05:50:21Z</time>
      </trkpt>
      <trkpt lat="45.75364" lon="4.84697">
        <ele>81.21502</ele>
        <time>2020-05-14T05:50:26Z</time>
      </trkpt>
      <trkpt lat="45.7535" lon="4.84692">
        <ele>82.34956</ele>
        <time>2020-05-14T05:50:31Z</time>
      </trkpt>
      <trkpt lat="45.75335" lon="4.84684">
        <ele>84.060394</ele>
        <time>2020-05-14T05:50:36Z</time>
      </trkpt>
      <trkpt lat="45.75319" lon="4.84674">
        <ele>85.67631</ele>
        <time>2020-05-14T05:50:41Z</time>
      </trkpt>
      <trkpt lat="45.75306" lon="4.84668">
        <ele>86.72691</ele>
        <time>2020-05-14T05:50:46Z</time>
      </trkpt>
      <trkpt lat="45.75292" lon="4.84662">
        <ele>87.05468</ele>
        <time>2020-05-14T05:50:51Z</time>
      </trkpt>
      <trkpt lat="45.7528" lon="4.84655">
        <ele>87.48643</ele>
        <time>2020-05-14T05:50:56Z</time>
      </trkpt>
      <trkpt lat="45.75259" lon="4.8464">
        <ele>87.11112</ele>
        <time>2020-05-14T05:51:05Z</time>
      </trkpt>
      <trkpt lat="45.75243" lon="4.84631">
        <ele>86.483315</ele>
        <time>2020-05-14T05:51:11Z</time>
      </trkpt>
      <trkpt lat="45.75219" lon="4.84615">
        <ele>86.34766</ele>
        <time>2020-05-14T05:51:20Z</time>
      </trkpt>
      <trkpt lat="45.75206" lon="4.84606">
        <ele>86.34964</ele>
        <time>2020-05-14T05:51:25Z</time>
      </trkpt>
      <trkpt lat="45.75192" lon="4.84597">
        <ele>86.15853</ele>
        <time>2020-05-14T05:51:30Z</time>
      </trkpt>
      <trkpt lat="45.75179" lon="4.84586">
        <ele>87.25075</ele>
        <time>2020-05-14T05:51:35Z</time>
      </trkpt>
      <trkpt lat="45.75166" lon="4.84577">
        <ele>88.36085</ele>
        <time>2020-05-14T05:51:40Z</time>
      </trkpt>
      <trkpt lat="45.75152" lon="4.84569">
        <ele>89.28877</ele>
        <time>2020-05-14T05:51:46Z</time>
      </trkpt>
      <trkpt lat="45.75138" lon="4.84561">
        <ele>89.8404</ele>
        <time>2020-05-14T05:51:51Z</time>
      </trkpt>
      <trkpt lat="45.75127" lon="4.84556">
        <ele>90.61488</ele>
        <time>2020-05-14T05:51:56Z</time>
      </trkpt>
      <trkpt lat="45.751" lon="4.84547">
        <ele>91.53003</ele>
        <time>2020-05-14T05:52:06Z</time>
      </trkpt>
      <trkpt lat="45.75089" lon="4.84541">
        <ele>91.24082</ele>
        <time>2020-05-14T05:52:11Z</time>
      </trkpt>
      <trkpt lat="45.75076" lon="4.84531">
        <ele>91.93711</ele>
        <time>2020-05-14T05:52:16Z</time>
      </trkpt>
    </trkseg>
  </trk>
</gpx>